sensor_id;sensor_type;location;lat;lon;timestamp;pressure;altitude;pressure_sealevel;temperature;humidity
14204;BME280;7185;51.854;6.622;2023-03-13T00:01:22;100085.34;;;11.26;100.00
14204;BME280;7185;51.854;6.622;2023-03-13T00:03:54;100077.84;;;11.12;100.00
14204;BME280;7185;51.854;6.622;2023-03-13T00:06:27;100069.16;;;11.10;100.00
14204;BME280;7185;51.854;6.622;2023-03-13T00:09:01;100060.75;;;10.99;100.00
14204;BME280;7185;51.854;6.622;2023-03-13T00:11:34;100061.09;;;10.87;100.00
14204;BME280;7185;51.854;6.622;2023-03-13T00:14:06;100051.69;;;10.79;100.00
14204;BME280;7185;51.854;6.622;2023-03-13T00:16:37;100046.66;;;10.72;100.00
14204;BME280;7185;51.854;6.622;2023-03-13T00:19:09;100031.03;;;10.68;100.00
14204;BME280;7185;51.854;6.622;2023-03-13T00:21:42;100018.50;;;10.78;100.00
14204;BME280;7185;51.854;6.622;2023-03-13T00:24:25;100018.50;;;10.78;100.00
14204;BME280;7185;51.854;6.622;2023-03-13T00:27:00;100012.25;;;10.82;100.00
14204;BME280;7185;51.854;6.622;2023-03-13T00:29:33;99999.25;;;10.79;100.00
14204;BME280;7185;51.854;6.622;2023-03-13T00:32:05;99989.84;;;10.72;100.00
14204;BME280;7185;51.854;6.622;2023-03-13T00:34:48;99993.97;;;10.49;100.00
14204;BME280;7185;51.854;6.622;2023-03-13T00:37:21;99987.22;;;10.72;100.00
14204;BME280;7185;51.854;6.622;2023-03-13T00:39:53;99969.41;;;10.54;100.00
14204;BME280;7185;51.854;6.622;2023-03-13T00:42:24;99959.53;;;10.62;100.00
14204;BME280;7185;51.854;6.622;2023-03-13T00:44:57;99951.66;;;10.62;100.00
14204;BME280;7185;51.854;6.622;2023-03-13T00:47:28;99952.72;;;10.56;100.00
14204;BME280;7185;51.854;6.622;2023-03-13T00:50:00;99950.69;;;10.66;100.00
14204;BME280;7185;51.854;6.622;2023-03-13T00:52:32;99947.31;;;10.61;100.00
14204;BME280;7185;51.854;6.622;2023-03-13T00:55:05;99931.94;;;10.50;100.00
14204;BME280;7185;51.854;6.622;2023-03-13T00:57:36;99932.41;;;10.63;100.00
14204;BME280;7185;51.854;6.622;2023-03-13T01:00:09;99936.22;;;10.52;100.00
14204;BME280;7185;51.854;6.622;2023-03-13T01:02:40;99929.09;;;10.58;100.00
14204;BME280;7185;51.854;6.622;2023-03-13T01:05:12;99922.03;;;10.60;100.00
14204;BME280;7185;51.854;6.622;2023-03-13T01:07:45;99920.50;;;10.52;100.00
14204;BME280;7185;51.854;6.622;2023-03-13T01:10:17;99923.88;;;10.56;100.00
14204;BME280;7185;51.854;6.622;2023-03-13T01:12:49;99917.06;;;10.50;100.00
14204;BME280;7185;51.854;6.622;2023-03-13T01:15:32;99920.53;;;10.51;100.00
14204;BME280;7185;51.854;6.622;2023-03-13T01:18:04;99909.84;;;10.59;100.00
14204;BME280;7185;51.854;6.622;2023-03-13T01:20:36;99904.84;;;10.49;100.00
14204;BME280;7185;51.854;6.622;2023-03-13T01:23:11;99897.88;;;10.48;100.00
14204;BME280;7185;51.854;6.622;2023-03-13T01:25:43;99880.19;;;10.57;100.00
14204;BME280;7185;51.854;6.622;2023-03-13T01:28:15;99875.03;;;10.54;100.00
14204;BME280;7185;51.854;6.622;2023-03-13T01:30:46;99877.25;;;10.36;100.00
14204;BME280;7185;51.854;6.622;2023-03-13T01:33:18;99863.28;;;10.37;100.00
14204;BME280;7185;51.854;6.622;2023-03-13T01:35:50;99858.81;;;10.41;100.00
14204;BME280;7185;51.854;6.622;2023-03-13T01:38:22;99848.03;;;10.18;100.00
14204;BME280;7185;51.854;6.622;2023-03-13T01:40:54;99845.47;;;10.17;100.00
14204;BME280;7185;51.854;6.622;2023-03-13T01:43:30;99835.47;;;10.31;100.00
14204;BME280;7185;51.854;6.622;2023-03-13T01:46:20;99829.56;;;10.23;100.00
14204;BME280;7185;51.854;6.622;2023-03-13T01:48:55;99819.09;;;10.23;100.00
14204;BME280;7185;51.854;6.622;2023-03-13T01:51:29;99815.44;;;10.29;100.00
14204;BME280;7185;51.854;6.622;2023-03-13T01:54:18;99799.19;;;10.17;100.00
14204;BME280;7185;51.854;6.622;2023-03-13T01:57:08;99793.47;;;10.33;100.00
14204;BME280;7185;51.854;6.622;2023-03-13T01:59:44;99782.59;;;10.17;100.00
14204;BME280;7185;51.854;6.622;2023-03-13T02:02:18;99781.47;;;10.26;100.00
14204;BME280;7185;51.854;6.622;2023-03-13T02:04:51;99768.22;;;10.02;100.00
14204;BME280;7185;51.854;6.622;2023-03-13T02:07:25;99763.94;;;10.28;100.00
14204;BME280;7185;51.854;6.622;2023-03-13T02:10:00;99755.38;;;10.23;100.00
14204;BME280;7185;51.854;6.622;2023-03-13T02:12:32;99742.41;;;10.18;100.00
14204;BME280;7185;51.854;6.622;2023-03-13T02:15:07;99730.22;;;10.17;100.00
14204;BME280;7185;51.854;6.622;2023-03-13T02:17:39;99738.13;;;10.15;100.00
14204;BME280;7185;51.854;6.622;2023-03-13T02:20:11;99725.13;;;10.12;100.00
14204;BME280;7185;51.854;6.622;2023-03-13T02:22:44;99717.69;;;10.27;100.00
14204;BME280;7185;51.854;6.622;2023-03-13T02:27:54;99706.53;;;10.50;100.00
14204;BME280;7185;51.854;6.622;2023-03-13T02:30:27;99707.94;;;10.32;100.00
14204;BME280;7185;51.854;6.622;2023-03-13T02:32:59;99698.25;;;10.34;100.00
14204;BME280;7185;51.854;6.622;2023-03-13T02:35:31;99699.16;;;10.33;100.00
14204;BME280;7185;51.854;6.622;2023-03-13T02:38:04;99698.00;;;10.43;100.00
14204;BME280;7185;51.854;6.622;2023-03-13T02:40:37;99693.47;;;10.48;100.00
14204;BME280;7185;51.854;6.622;2023-03-13T02:43:11;99690.50;;;10.59;100.00
14204;BME280;7185;51.854;6.622;2023-03-13T02:48:32;99673.31;;;10.50;100.00
14204;BME280;7185;51.854;6.622;2023-03-13T02:51:05;99662.13;;;10.45;100.00
14204;BME280;7185;51.854;6.622;2023-03-13T02:53:38;99658.41;;;10.52;100.00
14204;BME280;7185;51.854;6.622;2023-03-13T02:56:10;99649.09;;;10.69;100.00
14204;BME280;7185;51.854;6.622;2023-03-13T02:58:44;99660.44;;;10.70;100.00
14204;BME280;7185;51.854;6.622;2023-03-13T03:01:15;99649.44;;;10.85;100.00
14204;BME280;7185;51.854;6.622;2023-03-13T03:03:47;99634.84;;;10.78;100.00
14204;BME280;7185;51.854;6.622;2023-03-13T03:06:18;99627.44;;;10.64;100.00
14204;BME280;7185;51.854;6.622;2023-03-13T03:08:50;99610.56;;;10.71;100.00
14204;BME280;7185;51.854;6.622;2023-03-13T03:11:21;99623.53;;;10.76;100.00
14204;BME280;7185;51.854;6.622;2023-03-13T03:13:54;99608.34;;;10.86;100.00
14204;BME280;7185;51.854;6.622;2023-03-13T03:16:26;99621.91;;;10.97;100.00
14204;BME280;7185;51.854;6.622;2023-03-13T03:18:58;99604.13;;;11.05;100.00
14204;BME280;7185;51.854;6.622;2023-03-13T03:21:29;99616.41;;;11.05;100.00
14204;BME280;7185;51.854;6.622;2023-03-13T03:24:00;99624.13;;;11.09;100.00
14204;BME280;7185;51.854;6.622;2023-03-13T03:26:32;99616.34;;;11.06;100.00
14204;BME280;7185;51.854;6.622;2023-03-13T03:29:06;99611.69;;;11.14;100.00
14204;BME280;7185;51.854;6.622;2023-03-13T03:31:39;99612.81;;;11.07;100.00
14204;BME280;7185;51.854;6.622;2023-03-13T03:34:11;99608.72;;;11.24;100.00
14204;BME280;7185;51.854;6.622;2023-03-13T03:36:42;99616.53;;;11.25;100.00
14204;BME280;7185;51.854;6.622;2023-03-13T03:39:14;99609.63;;;11.23;100.00
14204;BME280;7185;51.854;6.622;2023-03-13T03:41:45;99617.16;;;11.32;100.00
14204;BME280;7185;51.854;6.622;2023-03-13T03:44:18;99618.25;;;11.26;100.00
14204;BME280;7185;51.854;6.622;2023-03-13T03:46:50;99616.41;;;11.28;100.00
14204;BME280;7185;51.854;6.622;2023-03-13T03:49:21;99624.00;;;11.36;100.00
14204;BME280;7185;51.854;6.622;2023-03-13T03:51:53;99613.94;;;11.47;100.00
14204;BME280;7185;51.854;6.622;2023-03-13T03:54:24;99616.72;;;11.44;100.00
14204;BME280;7185;51.854;6.622;2023-03-13T03:56:56;99618.53;;;11.42;100.00
14204;BME280;7185;51.854;6.622;2023-03-13T03:59:28;99611.31;;;11.47;100.00
14204;BME280;7185;51.854;6.622;2023-03-13T04:02:02;99605.09;;;11.50;100.00
14204;BME280;7185;51.854;6.622;2023-03-13T04:04:33;99608.69;;;11.47;100.00
14204;BME280;7185;51.854;6.622;2023-03-13T04:07:05;99591.56;;;11.61;100.00
14204;BME280;7185;51.854;6.622;2023-03-13T04:09:38;99592.38;;;11.39;100.00
14204;BME280;7185;51.854;6.622;2023-03-13T04:12:10;99593.84;;;11.46;100.00
14204;BME280;7185;51.854;6.622;2023-03-13T04:14:42;99581.03;;;11.39;100.00
14204;BME280;7185;51.854;6.622;2023-03-13T04:17:14;99588.59;;;11.46;100.00
14204;BME280;7185;51.854;6.622;2023-03-13T04:19:50;99573.00;;;11.43;100.00
14204;BME280;7185;51.854;6.622;2023-03-13T04:22:25;99579.47;;;11.57;100.00
14204;BME280;7185;51.854;6.622;2023-03-13T04:24:57;99576.84;;;11.57;100.00
14204;BME280;7185;51.854;6.622;2023-03-13T04:27:28;99580.59;;;11.73;100.00
14204;BME280;7185;51.854;6.622;2023-03-13T04:30:01;99580.31;;;11.57;100.00
14204;BME280;7185;51.854;6.622;2023-03-13T04:32:41;99566.13;;;11.63;100.00
14204;BME280;7185;51.854;6.622;2023-03-13T04:35:12;99569.47;;;11.67;100.00
14204;BME280;7185;51.854;6.622;2023-03-13T04:37:52;99568.97;;;11.79;100.00
14204;BME280;7185;51.854;6.622;2023-03-13T04:40:23;99566.03;;;11.64;100.00
14204;BME280;7185;51.854;6.622;2023-03-13T04:42:55;99563.00;;;11.75;100.00
14204;BME280;7185;51.854;6.622;2023-03-13T04:45:27;99567.66;;;11.69;100.00
14204;BME280;7185;51.854;6.622;2023-03-13T04:47:59;99573.75;;;11.69;100.00
14204;BME280;7185;51.854;6.622;2023-03-13T04:50:31;99565.38;;;11.82;100.00
14204;BME280;7185;51.854;6.622;2023-03-13T04:53:02;99558.63;;;11.98;100.00
14204;BME280;7185;51.854;6.622;2023-03-13T04:55:34;99564.84;;;11.95;100.00
14204;BME280;7185;51.854;6.622;2023-03-13T04:58:05;99557.25;;;11.88;100.00
14204;BME280;7185;51.854;6.622;2023-03-13T05:00:40;99558.69;;;11.95;100.00
14204;BME280;7185;51.854;6.622;2023-03-13T05:03:11;99548.84;;;11.79;100.00
14204;BME280;7185;51.854;6.622;2023-03-13T05:05:44;99545.72;;;11.92;100.00
14204;BME280;7185;51.854;6.622;2023-03-13T05:08:19;99533.94;;;12.02;100.00
14204;BME280;7185;51.854;6.622;2023-03-13T05:10:52;99546.75;;;12.10;100.00
14204;BME280;7185;51.854;6.622;2023-03-13T05:13:23;99539.72;;;12.10;100.00
14204;BME280;7185;51.854;6.622;2023-03-13T05:15:56;99527.59;;;12.28;100.00
14204;BME280;7185;51.854;6.622;2023-03-13T05:18:28;99523.38;;;12.04;100.00
14204;BME280;7185;51.854;6.622;2023-03-13T05:21:00;99517.53;;;12.18;100.00
14204;BME280;7185;51.854;6.622;2023-03-13T05:23:32;99513.91;;;12.20;100.00
14204;BME280;7185;51.854;6.622;2023-03-13T05:26:03;99516.34;;;12.04;100.00
14204;BME280;7185;51.854;6.622;2023-03-13T05:28:35;99518.84;;;12.28;100.00
14204;BME280;7185;51.854;6.622;2023-03-13T05:31:08;99518.31;;;12.20;100.00
14204;BME280;7185;51.854;6.622;2023-03-13T05:33:39;99511.88;;;12.27;100.00
14204;BME280;7185;51.854;6.622;2023-03-13T05:36:11;99516.88;;;12.33;100.00
14204;BME280;7185;51.854;6.622;2023-03-13T05:38:43;99503.63;;;12.36;100.00
14204;BME280;7185;51.854;6.622;2023-03-13T05:41:14;99506.91;;;12.21;100.00
14204;BME280;7185;51.854;6.622;2023-03-13T05:43:46;99500.28;;;12.33;100.00
14204;BME280;7185;51.854;6.622;2023-03-13T05:46:19;99492.03;;;12.40;100.00
14204;BME280;7185;51.854;6.622;2023-03-13T05:48:51;99490.78;;;12.49;100.00
14204;BME280;7185;51.854;6.622;2023-03-13T05:51:23;99498.94;;;12.43;100.00
14204;BME280;7185;51.854;6.622;2023-03-13T05:53:54;99488.34;;;12.44;100.00
14204;BME280;7185;51.854;6.622;2023-03-13T05:56:26;99495.47;;;12.42;100.00
14204;BME280;7185;51.854;6.622;2023-03-13T05:59:00;99489.13;;;12.47;100.00
14204;BME280;7185;51.854;6.622;2023-03-13T06:01:33;99478.25;;;12.35;100.00
14204;BME280;7185;51.854;6.622;2023-03-13T06:04:04;99478.88;;;12.61;100.00
14204;BME280;7185;51.854;6.622;2023-03-13T06:06:36;99492.22;;;12.56;100.00
14204;BME280;7185;51.854;6.622;2023-03-13T06:09:08;99486.91;;;12.58;100.00
14204;BME280;7185;51.854;6.622;2023-03-13T06:11:40;99486.38;;;12.50;100.00
14204;BME280;7185;51.854;6.622;2023-03-13T06:14:12;99488.47;;;12.62;100.00
14204;BME280;7185;51.854;6.622;2023-03-13T06:16:45;99492.81;;;12.63;100.00
14204;BME280;7185;51.854;6.622;2023-03-13T06:19:16;99497.44;;;12.77;100.00
14204;BME280;7185;51.854;6.622;2023-03-13T06:21:48;99501.41;;;12.67;100.00
14204;BME280;7185;51.854;6.622;2023-03-13T06:24:19;99503.06;;;12.69;100.00
14204;BME280;7185;51.854;6.622;2023-03-13T06:26:51;99499.94;;;12.80;100.00
14204;BME280;7185;51.854;6.622;2023-03-13T06:29:22;99507.03;;;12.78;100.00
14204;BME280;7185;51.854;6.622;2023-03-13T06:31:55;99500.66;;;12.84;100.00
14204;BME280;7185;51.854;6.622;2023-03-13T06:34:27;99497.38;;;12.79;100.00
14204;BME280;7185;51.854;6.622;2023-03-13T06:37:00;99500.59;;;13.04;100.00
14204;BME280;7185;51.854;6.622;2023-03-13T06:39:34;99500.25;;;12.93;100.00
14204;BME280;7185;51.854;6.622;2023-03-13T06:42:14;99497.03;;;13.05;100.00
14204;BME280;7185;51.854;6.622;2023-03-13T06:44:45;99495.81;;;12.94;100.00
14204;BME280;7185;51.854;6.622;2023-03-13T06:50:05;99491.50;;;13.12;100.00
14204;BME280;7185;51.854;6.622;2023-03-13T06:52:37;99491.00;;;13.03;100.00
14204;BME280;7185;51.854;6.622;2023-03-13T06:55:09;99482.09;;;13.06;100.00
14204;BME280;7185;51.854;6.622;2023-03-13T06:57:41;99480.19;;;13.10;100.00
14204;BME280;7185;51.854;6.622;2023-03-13T07:00:13;99474.66;;;12.97;100.00
14204;BME280;7185;51.854;6.622;2023-03-13T07:02:44;99478.53;;;13.07;100.00
14204;BME280;7185;51.854;6.622;2023-03-13T07:05:17;99464.66;;;13.03;100.00
14204;BME280;7185;51.854;6.622;2023-03-13T07:07:49;99448.31;;;13.16;100.00
14204;BME280;7185;51.854;6.622;2023-03-13T07:10:20;99443.50;;;13.06;100.00
14204;BME280;7185;51.854;6.622;2023-03-13T07:12:51;99446.88;;;13.08;100.00
14204;BME280;7185;51.854;6.622;2023-03-13T07:15:23;99449.94;;;13.18;100.00
14204;BME280;7185;51.854;6.622;2023-03-13T07:17:55;99455.13;;;13.20;100.00
14204;BME280;7185;51.854;6.622;2023-03-13T07:20:30;99449.88;;;13.39;100.00
14204;BME280;7185;51.854;6.622;2023-03-13T07:23:03;99453.06;;;13.46;100.00
14204;BME280;7185;51.854;6.622;2023-03-13T07:25:34;99455.06;;;13.41;100.00
14204;BME280;7185;51.854;6.622;2023-03-13T07:28:06;99449.19;;;13.53;100.00
14204;BME280;7185;51.854;6.622;2023-03-13T07:30:37;99455.00;;;13.42;100.00
14204;BME280;7185;51.854;6.622;2023-03-13T07:33:09;99451.69;;;13.56;100.00
14204;BME280;7185;51.854;6.622;2023-03-13T07:35:45;99451.88;;;13.70;100.00
14204;BME280;7185;51.854;6.622;2023-03-13T07:38:17;99443.78;;;13.74;100.00
14204;BME280;7185;51.854;6.622;2023-03-13T07:40:50;99450.63;;;13.78;100.00
14204;BME280;7185;51.854;6.622;2023-03-13T07:43:22;99451.06;;;13.86;100.00
14204;BME280;7185;51.854;6.622;2023-03-13T07:45:54;99448.44;;;13.86;100.00
14204;BME280;7185;51.854;6.622;2023-03-13T07:48:29;99458.53;;;13.95;100.00
14204;BME280;7185;51.854;6.622;2023-03-13T07:51:03;99448.75;;;13.80;100.00
14204;BME280;7185;51.854;6.622;2023-03-13T07:53:34;99440.38;;;13.71;100.00
14204;BME280;7185;51.854;6.622;2023-03-13T07:56:07;99465.88;;;13.89;100.00
14204;BME280;7185;51.854;6.622;2023-03-13T07:58:40;99435.38;;;14.02;100.00
14204;BME280;7185;51.854;6.622;2023-03-13T08:01:13;99440.91;;;13.96;100.00
14204;BME280;7185;51.854;6.622;2023-03-13T08:03:45;99436.75;;;13.92;100.00
14204;BME280;7185;51.854;6.622;2023-03-13T08:06:21;99453.13;;;13.98;100.00
14204;BME280;7185;51.854;6.622;2023-03-13T08:08:55;99441.63;;;14.17;100.00
14204;BME280;7185;51.854;6.622;2023-03-13T08:11:27;99445.88;;;14.19;100.00
14204;BME280;7185;51.854;6.622;2023-03-13T08:14:10;99440.78;;;14.16;100.00
14204;BME280;7185;51.854;6.622;2023-03-13T08:16:42;99446.75;;;14.20;100.00
14204;BME280;7185;51.854;6.622;2023-03-13T08:19:14;99438.97;;;14.17;100.00
14204;BME280;7185;51.854;6.622;2023-03-13T08:21:48;99443.84;;;14.25;100.00
14204;BME280;7185;51.854;6.622;2023-03-13T08:24:19;99452.75;;;14.40;100.00
14204;BME280;7185;51.854;6.622;2023-03-13T08:26:51;99442.81;;;14.27;100.00
14204;BME280;7185;51.854;6.622;2023-03-13T08:29:23;99449.47;;;14.34;100.00
14204;BME280;7185;51.854;6.622;2023-03-13T08:31:55;99461.13;;;14.30;100.00
14204;BME280;7185;51.854;6.622;2023-03-13T08:34:27;99455.94;;;14.29;100.00
14204;BME280;7185;51.854;6.622;2023-03-13T08:37:07;99449.66;;;14.31;100.00
14204;BME280;7185;51.854;6.622;2023-03-13T08:39:39;99452.91;;;14.37;100.00
14204;BME280;7185;51.854;6.622;2023-03-13T08:42:14;99457.69;;;14.46;100.00
14204;BME280;7185;51.854;6.622;2023-03-13T08:44:46;99442.03;;;14.43;100.00
14204;BME280;7185;51.854;6.622;2023-03-13T08:47:19;99449.78;;;14.46;100.00
14204;BME280;7185;51.854;6.622;2023-03-13T08:49:51;99448.34;;;14.56;100.00
14204;BME280;7185;51.854;6.622;2023-03-13T08:52:31;99447.03;;;14.65;100.00
14204;BME280;7185;51.854;6.622;2023-03-13T08:55:03;99447.66;;;14.86;100.00
14204;BME280;7185;51.854;6.622;2023-03-13T08:57:35;99445.72;;;14.74;100.00
14204;BME280;7185;51.854;6.622;2023-03-13T09:00:07;99437.22;;;14.85;100.00
14204;BME280;7185;51.854;6.622;2023-03-13T09:02:42;99438.66;;;15.06;100.00
14204;BME280;7185;51.854;6.622;2023-03-13T09:05:14;99437.19;;;15.17;100.00
14204;BME280;7185;51.854;6.622;2023-03-13T09:07:48;99425.13;;;14.96;100.00
14204;BME280;7185;51.854;6.622;2023-03-13T09:10:19;99433.44;;;15.05;100.00
14204;BME280;7185;51.854;6.622;2023-03-13T09:12:52;99423.25;;;15.14;100.00
14204;BME280;7185;51.854;6.622;2023-03-13T09:15:24;99431.91;;;15.17;100.00
14204;BME280;7185;51.854;6.622;2023-03-13T09:17:56;99421.72;;;14.94;100.00
14204;BME280;7185;51.854;6.622;2023-03-13T09:20:42;99431.50;;;14.92;100.00
14204;BME280;7185;51.854;6.622;2023-03-13T09:23:18;99431.25;;;14.81;100.00
14204;BME280;7185;51.854;6.622;2023-03-13T09:25:52;99432.44;;;14.91;100.00
14204;BME280;7185;51.854;6.622;2023-03-13T09:28:24;99418.50;;;14.89;100.00
14204;BME280;7185;51.854;6.622;2023-03-13T09:31:05;99425.78;;;14.84;100.00
14204;BME280;7185;51.854;6.622;2023-03-13T09:33:39;99406.38;;;14.85;100.00
14204;BME280;7185;51.854;6.622;2023-03-13T09:36:11;99412.88;;;14.95;100.00
14204;BME280;7185;51.854;6.622;2023-03-13T09:38:45;99399.75;;;15.10;100.00
14204;BME280;7185;51.854;6.622;2023-03-13T09:41:22;99391.91;;;15.08;100.00
14204;BME280;7185;51.854;6.622;2023-03-13T09:43:58;99387.97;;;15.32;100.00
14204;BME280;7185;51.854;6.622;2023-03-13T09:46:32;99381.81;;;15.31;100.00
14204;BME280;7185;51.854;6.622;2023-03-13T09:49:12;99388.50;;;15.22;100.00
14204;BME280;7185;51.854;6.622;2023-03-13T09:51:57;99395.13;;;15.29;100.00
14204;BME280;7185;51.854;6.622;2023-03-13T09:54:35;99383.16;;;15.38;100.00
14204;BME280;7185;51.854;6.622;2023-03-13T09:57:12;99373.56;;;15.68;100.00
14204;BME280;7185;51.854;6.622;2023-03-13T09:59:59;99373.94;;;16.06;100.00
14204;BME280;7185;51.854;6.622;2023-03-13T10:02:34;99381.22;;;16.03;100.00
14204;BME280;7185;51.854;6.622;2023-03-13T10:05:09;99376.28;;;16.11;100.00
14204;BME280;7185;51.854;6.622;2023-03-13T10:07:46;99365.16;;;16.35;100.00
14204;BME280;7185;51.854;6.622;2023-03-13T10:10:22;99367.63;;;16.38;100.00
14204;BME280;7185;51.854;6.622;2023-03-13T10:13:12;99377.25;;;16.24;100.00
14204;BME280;7185;51.854;6.622;2023-03-13T10:15:55;99376.88;;;16.31;100.00
14204;BME280;7185;51.854;6.622;2023-03-13T10:18:27;99373.84;;;16.37;100.00
14204;BME280;7185;51.854;6.622;2023-03-13T10:20:59;99362.06;;;16.70;100.00
14204;BME280;7185;51.854;6.622;2023-03-13T10:23:35;99358.47;;;16.85;100.00
14204;BME280;7185;51.854;6.622;2023-03-13T10:26:13;99338.31;;;16.97;100.00
14204;BME280;7185;51.854;6.622;2023-03-13T10:28:48;99339.34;;;17.22;100.00
14204;BME280;7185;51.854;6.622;2023-03-13T10:31:28;99332.28;;;17.35;100.00
14204;BME280;7185;51.854;6.622;2023-03-13T10:34:06;99318.03;;;17.11;100.00
14204;BME280;7185;51.854;6.622;2023-03-13T10:36:40;99349.19;;;16.93;100.00
14204;BME280;7185;51.854;6.622;2023-03-13T10:39:13;99333.75;;;16.85;100.00
14204;BME280;7185;51.854;6.622;2023-03-13T10:42:07;99336.00;;;16.64;100.00
14204;BME280;7185;51.854;6.622;2023-03-13T10:44:40;99338.66;;;16.64;100.00
14204;BME280;7185;51.854;6.622;2023-03-13T10:47:14;99326.59;;;16.45;100.00
14204;BME280;7185;51.854;6.622;2023-03-13T10:49:47;99336.53;;;16.27;100.00
14204;BME280;7185;51.854;6.622;2023-03-13T10:52:34;99319.00;;;16.53;100.00
14204;BME280;7185;51.854;6.622;2023-03-13T10:55:15;99322.13;;;16.60;100.00
14204;BME280;7185;51.854;6.622;2023-03-13T10:57:53;99314.78;;;16.93;100.00
14204;BME280;7185;51.854;6.622;2023-03-13T11:00:32;99311.84;;;17.10;100.00
14204;BME280;7185;51.854;6.622;2023-03-13T11:03:04;99306.41;;;17.26;100.00
14204;BME280;7185;51.854;6.622;2023-03-13T11:05:38;99303.63;;;17.15;100.00
14204;BME280;7185;51.854;6.622;2023-03-13T11:08:18;99315.47;;;17.09;100.00
14204;BME280;7185;51.854;6.622;2023-03-13T11:10:52;99299.59;;;17.22;100.00
14204;BME280;7185;51.854;6.622;2023-03-13T11:13:32;99298.22;;;17.16;100.00
14204;BME280;7185;51.854;6.622;2023-03-13T11:16:10;99292.75;;;16.92;100.00
14204;BME280;7185;51.854;6.622;2023-03-13T11:18:53;99287.19;;;17.10;100.00
14204;BME280;7185;51.854;6.622;2023-03-13T11:21:27;99297.53;;;17.00;100.00
14204;BME280;7185;51.854;6.622;2023-03-13T11:24:06;99280.50;;;17.04;100.00
14204;BME280;7185;51.854;6.622;2023-03-13T11:26:40;99285.38;;;16.97;100.00
14204;BME280;7185;51.854;6.622;2023-03-13T11:29:18;99287.13;;;17.24;100.00
14204;BME280;7185;51.854;6.622;2023-03-13T11:31:53;99275.69;;;17.36;100.00
14204;BME280;7185;51.854;6.622;2023-03-13T11:34:29;99275.56;;;17.38;100.00
14204;BME280;7185;51.854;6.622;2023-03-13T11:37:08;99274.44;;;17.42;100.00
14204;BME280;7185;51.854;6.622;2023-03-13T11:39:43;99265.84;;;17.51;100.00
14204;BME280;7185;51.854;6.622;2023-03-13T11:45:41;99261.19;;;17.42;100.00
14204;BME280;7185;51.854;6.622;2023-03-13T11:48:20;99261.78;;;17.20;100.00
14204;BME280;7185;51.854;6.622;2023-03-13T11:50:57;99262.97;;;17.29;100.00
14204;BME280;7185;51.854;6.622;2023-03-13T11:53:35;99241.97;;;17.51;100.00
14204;BME280;7185;51.854;6.622;2023-03-13T11:56:11;99244.97;;;17.60;100.00
14204;BME280;7185;51.854;6.622;2023-03-13T11:58:51;99246.78;;;17.72;100.00
14204;BME280;7185;51.854;6.622;2023-03-13T12:01:29;99227.28;;;17.60;100.00
14204;BME280;7185;51.854;6.622;2023-03-13T12:04:03;99230.88;;;17.72;100.00
14204;BME280;7185;51.854;6.622;2023-03-13T12:06:36;99233.09;;;17.78;100.00
14204;BME280;7185;51.854;6.622;2023-03-13T12:09:12;99230.13;;;17.96;100.00
14204;BME280;7185;51.854;6.622;2023-03-13T12:11:46;99209.69;;;18.22;100.00
14204;BME280;7185;51.854;6.622;2023-03-13T12:14:21;99195.28;;;18.13;100.00
14204;BME280;7185;51.854;6.622;2023-03-13T12:16:56;99190.00;;;18.13;100.00
14204;BME280;7185;51.854;6.622;2023-03-13T12:19:31;99206.63;;;18.15;100.00
14204;BME280;7185;51.854;6.622;2023-03-13T12:22:06;99211.06;;;18.52;100.00
14204;BME280;7185;51.854;6.622;2023-03-13T12:24:43;99191.91;;;19.42;100.00
14204;BME280;7185;51.854;6.622;2023-03-13T12:27:17;99187.03;;;20.38;66.71
14204;BME280;7185;51.854;6.622;2023-03-13T12:29:52;99185.50;;;20.02;65.80
14204;BME280;7185;51.854;6.622;2023-03-13T12:32:28;99169.19;;;20.50;65.80
14204;BME280;7185;51.854;6.622;2023-03-13T12:35:06;99172.38;;;20.33;67.09
14204;BME280;7185;51.854;6.622;2023-03-13T12:37:40;99178.44;;;20.23;65.69
14204;BME280;7185;51.854;6.622;2023-03-13T12:40:15;99158.53;;;20.50;66.29
14204;BME280;7185;51.854;6.622;2023-03-13T12:42:50;99162.31;;;21.01;62.08
14204;BME280;7185;51.854;6.622;2023-03-13T12:45:25;99159.22;;;20.64;61.74
14204;BME280;7185;51.854;6.622;2023-03-13T12:48:05;99157.97;;;19.69;66.60
14204;BME280;7185;51.854;6.622;2023-03-13T12:50:41;99176.63;;;18.99;67.97
14204;BME280;7185;51.854;6.622;2023-03-13T12:53:26;99150.59;;;18.80;70.00
14204;BME280;7185;51.854;6.622;2023-03-13T12:56:09;99150.97;;;18.87;69.10
14204;BME280;7185;51.854;6.622;2023-03-13T12:58:43;99147.53;;;18.73;70.00
14204;BME280;7185;51.854;6.622;2023-03-13T13:01:20;99137.47;;;18.54;70.56
14204;BME280;7185;51.854;6.622;2023-03-13T13:03:58;99140.28;;;18.40;71.32
14204;BME280;7185;51.854;6.622;2023-03-13T13:09:18;99145.41;;;18.19;72.47
14204;BME280;7185;51.854;6.622;2023-03-13T13:11:52;99129.44;;;18.31;70.87
14204;BME280;7185;51.854;6.622;2023-03-13T13:17:48;99113.31;;;18.82;68.36
14204;BME280;7185;51.854;6.622;2023-03-13T13:32:13;99107.44;;;18.54;67.39
14204;BME280;7185;51.854;6.622;2023-03-13T13:37:49;99107.38;;;18.67;66.97
14204;BME280;7185;51.854;6.622;2023-03-13T13:40:22;99105.16;;;19.07;66.03
14204;BME280;7185;51.854;6.622;2023-03-13T13:42:55;99092.03;;;19.29;65.86
14204;BME280;7185;51.854;6.622;2023-03-13T13:45:30;99094.81;;;19.27;64.92
14204;BME280;7185;51.854;6.622;2023-03-13T13:48:20;99098.88;;;18.97;64.29
14204;BME280;7185;51.854;6.622;2023-03-13T13:53:48;99078.91;;;18.80;63.84
14204;BME280;7185;51.854;6.622;2023-03-13T13:56:26;99089.34;;;18.94;64.19
14204;BME280;7185;51.854;6.622;2023-03-13T13:59:01;99082.94;;;19.54;62.98
14204;BME280;7185;51.854;6.622;2023-03-13T14:01:33;99078.56;;;20.41;60.16
14204;BME280;7185;51.854;6.622;2023-03-13T14:04:10;99066.44;;;20.27;57.89
14204;BME280;7185;51.854;6.622;2023-03-13T14:06:44;99076.63;;;19.89;59.15
14204;BME280;7185;51.854;6.622;2023-03-13T14:09:19;99067.91;;;19.75;59.36
14204;BME280;7185;51.854;6.622;2023-03-13T14:11:55;99065.03;;;19.67;60.39